createdAt,value
2022-11-14T00:00:34.759Z,6.70
2022-11-14T00:03:05.630Z,6.60
2022-11-14T00:05:34.234Z,6.50
2022-11-14T00:08:02.005Z,6.70
2022-11-14T00:10:29.690Z,6.70
2022-11-14T00:12:57.428Z,6.60
2022-11-14T00:15:26.518Z,6.60
2022-11-14T00:17:54.222Z,6.60
2022-11-14T00:20:21.965Z,6.70
2022-11-14T00:22:49.754Z,7.00
2022-11-14T00:25:17.582Z,6.70
2022-11-14T00:27:45.300Z,6.60
2022-11-14T00:30:13.255Z,6.60
2022-11-14T00:32:42.325Z,6.70
2022-11-14T00:35:10.621Z,7.10
2022-11-14T00:37:38.356Z,6.80
2022-11-14T00:40:06.939Z,6.80
2022-11-14T00:42:35.762Z,6.80
2022-11-14T00:45:03.629Z,7.00
2022-11-14T00:47:31.362Z,7.00
2022-11-14T00:50:00.432Z,7.10
2022-11-14T00:52:28.134Z,7.10
2022-11-14T00:54:55.836Z,7.10
2022-11-14T00:57:23.543Z,7.10
2022-11-14T00:59:51.330Z,6.90
2022-11-14T01:02:19.148Z,6.90
2022-11-14T01:04:46.851Z,7.10
2022-11-14T01:07:15.922Z,7.10
2022-11-14T01:09:43.619Z,7.10
2022-11-14T01:12:11.341Z,6.90
2022-11-14T01:14:40.671Z,7.00
2022-11-14T01:17:08.429Z,7.10
2022-11-14T01:19:36.278Z,7.10
2022-11-14T01:22:06.506Z,7.20
2022-11-14T01:24:36.269Z,7.20
2022-11-14T01:27:04.178Z,7.10
2022-11-14T01:29:31.910Z,6.70
2022-11-14T01:31:59.766Z,7.20
2022-11-14T01:34:29.368Z,7.40
2022-11-14T01:36:57.078Z,7.20
2022-11-14T01:39:24.938Z,7.50
2022-11-14T01:41:54.079Z,7.30
2022-11-14T01:44:42.305Z,7.10
2022-11-14T01:47:12.358Z,7.40
2022-11-14T01:49:43.310Z,7.30
2022-11-14T01:52:15.865Z,7.40
2022-11-14T01:54:49.142Z,7.20
2022-11-14T01:57:22.478Z,7.30
2022-11-14T01:59:54.031Z,7.50
2022-11-14T02:02:23.267Z,7.40
2022-11-14T02:04:56.394Z,7.40
2022-11-14T02:07:26.515Z,7.70
2022-11-14T02:09:54.890Z,7.30
2022-11-14T02:12:24.595Z,7.60
2022-11-14T02:14:56.642Z,7.50
2022-11-14T02:17:30.391Z,7.50
2022-11-14T02:20:07.226Z,7.50
2022-11-14T02:22:35.005Z,7.50
2022-11-14T02:25:03.007Z,7.40
2022-11-14T02:27:31.326Z,7.40
2022-11-14T02:30:05.863Z,7.30
2022-11-14T02:32:56.899Z,7.30
2022-11-14T02:35:22.671Z,7.40
2022-11-14T02:37:50.415Z,7.40
2022-11-14T02:40:18.465Z,7.30
2022-11-14T02:42:46.167Z,7.30
2022-11-14T02:45:14.245Z,7.40
2022-11-14T02:47:42.018Z,7.40
2022-11-14T02:50:10.387Z,7.30
2022-11-14T02:52:39.731Z,6.80
2022-11-14T02:55:08.297Z,7.30
2022-11-14T02:57:36.012Z,7.20
2022-11-14T03:00:05.439Z,7.20
2022-11-14T03:02:35.410Z,7.10
2022-11-14T03:05:03.166Z,7.10
2022-11-14T03:07:30.984Z,7.20
2022-11-14T03:10:00.071Z,7.10
2022-11-14T03:12:27.894Z,7.10
2022-11-14T03:14:55.595Z,7.20
2022-11-14T03:17:24.500Z,7.10
2022-11-14T03:19:52.182Z,7.20
2022-11-14T03:22:19.869Z,7.40
2022-11-14T03:24:47.572Z,7.20
2022-11-14T03:27:16.612Z,7.10
2022-11-14T03:29:44.359Z,7.20
2022-11-14T03:32:12.073Z,7.00
2022-11-14T03:34:39.797Z,7.10
2022-11-14T03:37:07.488Z,6.80
2022-11-14T03:39:35.226Z,7.10
2022-11-14T03:42:02.963Z,6.60
2022-11-14T03:44:32.047Z,6.80
2022-11-14T03:46:59.771Z,6.90
2022-11-14T03:49:27.490Z,6.90
2022-11-14T03:51:55.206Z,6.70
2022-11-14T03:54:23.009Z,6.80
2022-11-14T03:56:52.468Z,6.80
2022-11-14T03:59:20.191Z,6.80
2022-11-14T04:01:49.334Z,6.60
2022-11-14T04:04:17.168Z,6.60
2022-11-14T04:06:45.937Z,6.80
2022-11-14T04:09:13.885Z,6.60
2022-11-14T04:11:41.584Z,6.80
2022-11-14T04:14:10.315Z,6.70
2022-11-14T04:16:38.028Z,6.80
2022-11-14T04:19:07.362Z,6.80
2022-11-14T04:21:35.097Z,6.50
2022-11-14T04:24:07.072Z,6.70
2022-11-14T04:26:37.700Z,6.60
2022-11-14T04:29:07.443Z,6.60
2022-11-14T04:31:35.165Z,6.40
2022-11-14T04:34:03.044Z,6.60
2022-11-14T04:36:32.112Z,6.70
2022-11-14T04:38:59.843Z,6.50
2022-11-14T04:41:28.108Z,6.60
2022-11-14T04:43:55.866Z,6.60
2022-11-14T04:46:23.552Z,6.80
2022-11-14T04:48:51.366Z,6.60
2022-11-14T04:51:19.161Z,6.60
2022-11-14T04:53:48.203Z,6.80
2022-11-14T04:56:15.918Z,7.00
2022-11-14T04:58:43.619Z,6.90
2022-11-14T05:01:13.010Z,6.60
2022-11-14T05:03:40.785Z,6.80
2022-11-14T05:06:09.178Z,6.70
2022-11-14T05:08:36.950Z,6.60
2022-11-14T05:11:06.234Z,6.80
2022-11-14T05:13:33.974Z,6.80
2022-11-14T05:16:02.263Z,6.80
2022-11-14T05:18:30.341Z,6.70
2022-11-14T05:21:00.215Z,7.00
2022-11-14T05:23:28.606Z,6.80
2022-11-14T05:26:03.555Z,6.90
2022-11-14T05:28:33.086Z,6.80
2022-11-14T05:31:05.168Z,7.20
2022-11-14T05:33:33.649Z,6.80
2022-11-14T05:36:05.617Z,7.00
2022-11-14T05:38:33.639Z,7.20
2022-11-14T05:41:05.730Z,7.20
2022-11-14T05:43:35.154Z,7.10
2022-11-14T05:46:04.325Z,6.90
2022-11-14T05:48:33.034Z,6.90
2022-11-14T05:51:04.298Z,6.70
2022-11-14T05:53:34.147Z,6.70
2022-11-14T05:56:02.524Z,7.00
2022-11-14T05:58:31.985Z,6.90
2022-11-14T06:01:06.003Z,7.10
2022-11-14T06:03:35.352Z,6.90
2022-11-14T06:06:03.660Z,7.00
2022-11-14T06:08:32.627Z,7.10
2022-11-14T06:11:06.074Z,7.20
2022-11-14T06:13:34.573Z,6.90
2022-11-14T06:16:04.954Z,6.90
2022-11-14T06:18:35.762Z,6.90
2022-11-14T06:21:05.278Z,6.80
2022-11-14T06:23:33.135Z,7.00
2022-11-14T06:26:01.894Z,6.60
2022-11-14T06:28:30.103Z,6.80
2022-11-14T06:30:59.797Z,6.80
2022-11-14T06:33:29.675Z,6.80
2022-11-14T06:35:59.552Z,6.70
2022-11-14T06:38:27.636Z,6.50
2022-11-14T06:41:03.039Z,6.50
2022-11-14T06:43:32.942Z,6.40
2022-11-14T06:46:00.722Z,6.50
2022-11-14T06:48:30.286Z,6.40
2022-11-14T06:50:59.659Z,6.30
2022-11-14T06:53:29.995Z,6.20
2022-11-14T06:55:59.041Z,5.90
2022-11-14T06:58:28.650Z,6.10
2022-11-14T07:00:56.797Z,6.40
2022-11-14T07:03:24.653Z,6.20
2022-11-14T07:05:53.847Z,6.30
2022-11-14T07:08:21.561Z,6.40
2022-11-14T07:10:49.284Z,6.40
2022-11-14T07:13:17.003Z,6.30
2022-11-14T07:15:51.211Z,6.20
2022-11-14T07:18:18.931Z,6.20
2022-11-14T07:20:46.845Z,6.50
2022-11-14T07:23:21.462Z,6.50
2022-11-14T07:25:50.669Z,6.70
2022-11-14T07:28:18.358Z,6.90
2022-11-14T07:30:46.346Z,6.70
2022-11-14T07:33:14.068Z,6.90
2022-11-14T07:35:41.824Z,7.20
2022-11-14T07:38:09.609Z,7.20
2022-11-14T07:40:38.666Z,7.40
2022-11-14T07:43:06.365Z,8.00
2022-11-14T07:45:34.106Z,8.70
2022-11-14T07:48:03.348Z,9.20
2022-11-14T07:50:31.564Z,9.70
2022-11-14T07:52:59.254Z,10.30
2022-11-14T07:55:26.974Z,10.50
2022-11-14T07:57:56.744Z,10.70
2022-11-14T08:00:24.449Z,10.30
2022-11-14T08:02:52.204Z,10.70
2022-11-14T08:05:19.929Z,11.20
2022-11-14T08:07:47.961Z,11.40
2022-11-14T08:10:16.179Z,12.00
2022-11-14T08:12:43.943Z,12.00
2022-11-14T08:15:15.151Z,12.30
2022-11-14T08:17:42.884Z,13.10
2022-11-14T08:20:11.886Z,13.40
2022-11-14T08:22:39.603Z,13.70
2022-11-14T08:25:08.368Z,14.00
2022-11-14T08:27:36.151Z,14.70
2022-11-14T08:30:04.232Z,15.00
2022-11-14T08:32:33.316Z,15.50
2022-11-14T08:35:01.020Z,15.30
2022-11-14T08:37:28.738Z,14.80
2022-11-14T08:39:56.487Z,14.30
2022-11-14T08:42:24.243Z,13.50
2022-11-14T08:44:52.452Z,13.00
2022-11-14T08:47:20.438Z,13.10
2022-11-14T08:49:49.455Z,12.00
2022-11-14T08:52:17.244Z,11.40
2022-11-14T08:54:45.447Z,11.20
2022-11-14T08:57:15.161Z,11.30
2022-11-14T08:59:43.094Z,11.20
2022-11-14T09:02:12.122Z,11.10
2022-11-14T09:04:40.159Z,10.80
2022-11-14T09:07:09.525Z,11.00
2022-11-14T09:09:37.269Z,10.90
2022-11-14T09:12:05.529Z,10.70
2022-11-14T09:14:33.224Z,10.60
2022-11-14T09:17:05.666Z,10.40
2022-11-14T09:19:33.920Z,10.60
2022-11-14T09:22:01.758Z,10.30
2022-11-14T09:24:30.836Z,10.20
2022-11-14T09:26:58.564Z,10.20
2022-11-14T09:29:26.352Z,10.20
2022-11-14T09:31:54.984Z,10.10
2022-11-14T09:34:22.675Z,9.90
2022-11-14T09:36:50.394Z,9.90
2022-11-14T09:39:18.121Z,10.00
2022-11-14T09:41:58.777Z,10.00
2022-11-14T09:44:41.400Z,10.00
2022-11-14T09:47:16.666Z,9.60
2022-11-14T09:49:50.254Z,10.00
2022-11-14T09:52:31.625Z,9.60
2022-11-14T09:55:02.154Z,9.90
2022-11-14T09:57:31.678Z,9.80
2022-11-14T09:59:59.402Z,9.90
2022-11-14T10:02:44.109Z,9.70
2022-11-14T10:05:25.648Z,9.80
2022-11-14T10:08:10.476Z,9.80
2022-11-14T10:10:51.995Z,9.80
2022-11-14T10:13:43.796Z,9.80
2022-11-14T10:16:19.618Z,9.80
2022-11-14T10:19:10.910Z,9.70
2022-11-14T10:21:53.055Z,10.00
2022-11-14T10:24:48.653Z,10.00
2022-11-14T10:27:20.654Z,10.10
2022-11-14T10:30:03.790Z,10.10
2022-11-14T10:32:58.785Z,10.20
2022-11-14T10:35:34.982Z,10.10
2022-11-14T10:38:12.007Z,10.40
2022-11-14T10:40:43.113Z,10.70
2022-11-14T10:43:21.810Z,11.10
2022-11-14T10:45:55.145Z,11.10
2022-11-14T10:48:32.202Z,11.40
2022-11-14T10:51:02.751Z,11.00
2022-11-14T10:53:42.647Z,11.40
2022-11-14T10:56:12.543Z,11.70
2022-11-14T10:58:48.308Z,11.60
2022-11-14T11:01:39.257Z,11.80
2022-11-14T11:04:15.603Z,11.80
2022-11-14T11:06:43.587Z,12.20
2022-11-14T11:09:34.345Z,12.30
2022-11-14T11:12:04.189Z,11.90
2022-11-14T11:14:32.813Z,11.90
2022-11-14T11:17:22.834Z,11.30
2022-11-14T11:19:50.983Z,11.80
2022-11-14T11:22:28.661Z,11.80
2022-11-14T11:24:56.868Z,11.60
2022-11-14T11:27:26.721Z,11.70
2022-11-14T11:30:06.974Z,11.80
2022-11-14T11:32:36.282Z,12.00
2022-11-14T11:35:10.491Z,12.20
2022-11-14T11:37:43.108Z,11.70
2022-11-14T11:40:17.857Z,12.10
2022-11-14T11:45:42.152Z,11.90
2022-11-14T11:48:18.212Z,11.80
2022-11-14T11:50:45.863Z,11.70
2022-11-14T11:53:19.935Z,11.60
2022-11-14T11:55:49.390Z,11.80
2022-11-14T11:58:23.487Z,12.00
2022-11-14T12:00:55.387Z,11.80
2022-11-14T12:03:26.166Z,11.70
2022-11-14T12:06:03.785Z,12.10
2022-11-14T12:08:38.807Z,12.20
2022-11-14T12:11:13.101Z,12.00
2022-11-14T12:14:23.971Z,11.90
2022-11-14T12:17:09.312Z,11.40
2022-11-14T12:19:58.822Z,11.90
2022-11-14T12:22:57.281Z,11.80
2022-11-14T12:25:45.987Z,11.70
2022-11-14T12:28:31.287Z,11.80
2022-11-14T12:31:02.467Z,11.80
2022-11-14T12:33:33.693Z,11.90
2022-11-14T12:36:04.731Z,11.90
2022-11-14T12:38:41.543Z,12.00
2022-11-14T12:41:10.680Z,12.10
2022-11-14T12:43:41.548Z,12.00
2022-11-14T12:46:11.512Z,12.40
2022-11-14T12:48:40.616Z,12.30
2022-11-14T12:51:49.559Z,12.00
2022-11-14T12:54:45.657Z,12.10
2022-11-14T12:57:44.572Z,12.50
2022-11-14T13:00:13.238Z,12.40
2022-11-14T13:03:06.069Z,12.50
2022-11-14T13:05:53.744Z,12.70
2022-11-14T13:08:44.439Z,12.20
2022-11-14T13:11:55.048Z,12.40
2022-11-14T13:14:40.739Z,12.30
2022-11-14T13:17:41.500Z,11.80
2022-11-14T13:20:50.225Z,11.70
2022-11-14T13:23:56.753Z,11.70
2022-11-14T13:26:52.489Z,11.70
2022-11-14T13:30:00.062Z,11.70
2022-11-14T13:33:07.346Z,11.70
2022-11-14T13:35:46.871Z,11.50
2022-11-14T13:38:44.058Z,11.50
2022-11-14T13:41:37.231Z,11.60
2022-11-14T13:44:42.248Z,11.80
2022-11-14T13:47:26.573Z,11.60
2022-11-14T13:50:00.902Z,11.60
2022-11-14T13:52:32.179Z,11.60
2022-11-14T13:55:00.943Z,11.40
2022-11-14T13:57:42.159Z,11.70
2022-11-14T14:00:18.451Z,11.50
2022-11-14T14:03:02.025Z,11.50
2022-11-14T14:05:39.182Z,11.40
2022-11-14T14:08:17.794Z,11.40
2022-11-14T14:10:56.834Z,11.30
2022-11-14T14:13:40.237Z,11.00
2022-11-14T14:16:15.857Z,11.20
2022-11-14T14:19:00.254Z,11.00
2022-11-14T14:21:41.239Z,11.00
2022-11-14T14:24:20.229Z,11.00
2022-11-14T14:27:01.554Z,11.00
2022-11-14T14:29:39.170Z,10.90
2022-11-14T14:32:13.871Z,11.00
2022-11-14T14:34:42.336Z,10.80
2022-11-14T14:37:19.514Z,10.80
2022-11-14T14:40:01.365Z,10.80
2022-11-14T14:42:39.813Z,11.00
2022-11-14T14:45:16.236Z,10.90
2022-11-14T14:47:46.861Z,11.00
2022-11-14T14:50:18.517Z,11.00
2022-11-14T14:52:46.429Z,10.90
2022-11-14T14:55:22.404Z,11.00
2022-11-14T14:57:50.229Z,10.90
2022-11-14T15:00:25.764Z,11.20
2022-11-14T15:02:55.938Z,11.10
2022-11-14T15:05:24.673Z,11.00
2022-11-14T15:07:54.465Z,10.90
2022-11-14T15:10:24.775Z,10.80
2022-11-14T15:12:53.907Z,11.00
2022-11-14T15:15:25.578Z,11.10
2022-11-14T15:17:55.151Z,10.70
2022-11-14T15:20:24.439Z,10.90
2022-11-14T15:23:06.989Z,10.80
2022-11-14T15:25:35.123Z,11.10
2022-11-14T15:28:03.078Z,11.10
2022-11-14T15:30:34.701Z,10.50
2022-11-14T15:33:04.813Z,10.70
2022-11-14T15:35:34.498Z,10.70
2022-11-14T15:38:36.680Z,10.80
2022-11-14T15:41:20.101Z,10.20
2022-11-14T15:43:50.319Z,10.80
2022-11-14T15:46:39.499Z,10.80
2022-11-14T15:49:17.950Z,10.50
2022-11-14T15:51:48.156Z,10.80
2022-11-14T15:54:28.050Z,10.90
2022-11-14T15:56:57.621Z,10.90
2022-11-14T15:59:25.837Z,10.70
2022-11-14T16:01:58.625Z,11.10
2022-11-14T16:04:30.339Z,11.10
2022-11-14T16:06:58.097Z,10.80
2022-11-14T16:09:26.220Z,11.10
2022-11-14T16:11:54.150Z,11.00
2022-11-14T16:14:21.899Z,11.20
2022-11-14T16:16:49.657Z,11.30
2022-11-14T16:19:18.791Z,10.90
2022-11-14T16:21:46.471Z,11.20
2022-11-14T16:24:19.904Z,11.20
2022-11-14T16:26:48.537Z,11.40
2022-11-14T16:29:16.762Z,11.30
2022-11-14T16:31:44.793Z,11.20
2022-11-14T16:34:19.494Z,11.20
2022-11-14T16:36:48.685Z,11.00
2022-11-14T16:39:16.551Z,11.40
2022-11-14T16:41:44.595Z,11.20
2022-11-14T16:44:17.222Z,11.30
2022-11-14T16:46:45.551Z,11.60
2022-11-14T16:49:15.286Z,11.40
2022-11-14T16:51:48.314Z,11.40
2022-11-14T16:54:17.999Z,11.40
2022-11-14T16:56:46.002Z,11.30
2022-11-14T16:59:13.977Z,10.90
2022-11-14T17:01:42.013Z,11.40
2022-11-14T17:04:10.094Z,11.10
2022-11-14T17:06:37.830Z,11.50
2022-11-14T17:09:06.910Z,11.60
2022-11-14T17:11:34.630Z,11.60
2022-11-14T17:14:02.491Z,11.40
2022-11-14T17:16:30.622Z,11.50
2022-11-14T17:18:58.479Z,11.50
2022-11-14T17:21:26.357Z,11.60
2022-11-14T17:24:00.253Z,11.90
2022-11-14T17:26:29.927Z,11.50
2022-11-14T17:28:57.901Z,11.40
2022-11-14T17:31:25.662Z,11.40
2022-11-14T17:33:54.500Z,11.50
2022-11-14T17:36:23.287Z,11.80
2022-11-14T17:38:51.503Z,11.70
2022-11-14T17:41:19.634Z,11.60
2022-11-14T17:43:52.515Z,11.70
2022-11-14T17:46:20.862Z,11.80
2022-11-14T17:48:48.995Z,11.90
2022-11-14T17:51:17.599Z,12.10
2022-11-14T17:53:45.639Z,11.90
2022-11-14T17:56:15.358Z,11.90
2022-11-14T17:58:43.335Z,12.10
2022-11-14T18:01:13.709Z,12.10
2022-11-14T18:03:41.910Z,12.10
2022-11-14T18:06:11.208Z,11.70
2022-11-14T18:08:39.448Z,12.10
2022-11-14T18:11:09.821Z,12.20
2022-11-14T18:13:37.743Z,12.40
2022-11-14T18:16:08.610Z,12.30
2022-11-14T18:18:38.299Z,12.50
2022-11-14T18:21:10.570Z,12.70
2022-11-14T18:23:39.535Z,12.50
2022-11-14T18:26:11.615Z,12.50
2022-11-14T18:28:39.853Z,12.60
2022-11-14T18:31:10.656Z,12.70
2022-11-14T18:33:40.824Z,12.60
2022-11-14T18:36:11.698Z,12.80
2022-11-14T18:38:39.483Z,12.90
2022-11-14T18:41:09.347Z,12.40
2022-11-14T18:43:37.728Z,12.90
2022-11-14T18:46:07.467Z,12.60
2022-11-14T18:48:35.408Z,12.60
2022-11-14T18:51:05.591Z,12.50
2022-11-14T18:53:33.804Z,12.70
2022-11-14T18:56:05.295Z,12.70
2022-11-14T18:58:33.595Z,12.40
2022-11-14T19:01:10.299Z,12.40
2022-11-14T19:03:38.317Z,12.60
2022-11-14T19:06:09.444Z,12.70
2022-11-14T19:08:37.230Z,12.60
2022-11-14T19:11:06.650Z,12.50
2022-11-14T19:13:34.987Z,12.50
2022-11-14T19:16:03.683Z,12.40
2022-11-14T19:18:32.264Z,12.60
2022-11-14T19:21:02.186Z,12.40
2022-11-14T19:23:31.704Z,12.40
2022-11-14T19:26:01.176Z,12.30
2022-11-14T19:28:30.151Z,12.50
2022-11-14T19:31:02.963Z,12.40
2022-11-14T19:33:31.175Z,12.40
2022-11-14T19:35:59.429Z,12.20
2022-11-14T19:38:27.189Z,12.10
2022-11-14T19:41:00.825Z,12.00
2022-11-14T19:43:31.542Z,12.20
2022-11-14T19:46:03.017Z,12.20
2022-11-14T19:48:31.014Z,12.20
2022-11-14T19:51:03.042Z,12.20
2022-11-14T19:53:32.135Z,11.90
2022-11-14T19:56:02.793Z,12.00
2022-11-14T19:58:30.636Z,12.00
2022-11-14T20:01:03.770Z,11.90
2022-11-14T20:03:32.276Z,11.80
2022-11-14T20:06:00.467Z,11.90
2022-11-14T20:08:28.894Z,11.80
2022-11-14T20:10:58.496Z,12.00
2022-11-14T20:13:30.780Z,12.10
2022-11-14T20:15:59.792Z,12.00
2022-11-14T20:18:29.613Z,11.80
2022-11-14T20:20:58.903Z,11.60
2022-11-14T20:23:27.476Z,11.70
2022-11-14T20:25:55.635Z,11.40
2022-11-14T20:28:23.849Z,11.70
2022-11-14T20:30:53.275Z,11.70
2022-11-14T20:33:21.187Z,11.70
2022-11-14T20:35:49.098Z,11.70
2022-11-14T20:38:17.145Z,11.80
2022-11-14T20:40:45.286Z,12.00
2022-11-14T20:43:13.175Z,12.00
2022-11-14T20:45:41.006Z,11.80
2022-11-14T20:48:10.222Z,11.70
2022-11-14T20:50:38.039Z,11.60
2022-11-14T20:53:05.921Z,12.10
2022-11-14T20:55:34.397Z,11.60
2022-11-14T20:58:02.266Z,12.00
2022-11-14T21:00:30.200Z,11.90
2022-11-14T21:02:58.060Z,11.90
2022-11-14T21:05:27.231Z,11.70
2022-11-14T21:07:54.951Z,12.00
2022-11-14T21:10:40.226Z,11.60
2022-11-14T21:13:25.951Z,11.80
2022-11-14T21:15:56.288Z,11.60
2022-11-14T21:18:24.072Z,11.80
2022-11-14T21:21:01.052Z,11.70
2022-11-14T21:23:29.270Z,11.70
2022-11-14T21:26:08.504Z,11.90
2022-11-14T21:28:39.098Z,11.60
2022-11-14T21:31:15.193Z,11.80
2022-11-14T21:33:42.871Z,11.70
2022-11-14T21:36:43.105Z,11.50
2022-11-14T21:39:01.515Z,11.70
2022-11-14T21:41:30.638Z,11.70
2022-11-14T21:44:00.534Z,11.80
2022-11-14T21:46:29.279Z,11.60
2022-11-14T21:48:58.182Z,11.60
2022-11-14T21:51:29.026Z,11.80
2022-11-14T21:53:58.646Z,11.70
2022-11-14T21:56:28.058Z,11.60
2022-11-14T21:59:12.459Z,11.70
2022-11-14T22:01:58.301Z,11.60
2022-11-14T22:04:26.183Z,11.60
2022-11-14T22:06:55.920Z,11.60
2022-11-14T22:09:23.788Z,11.70
2022-11-14T22:11:51.582Z,11.70
2022-11-14T22:14:19.297Z,11.70
2022-11-14T22:16:47.002Z,11.70
2022-11-14T22:19:14.924Z,11.70
2022-11-14T22:21:42.610Z,11.70
2022-11-14T22:24:11.666Z,11.90
2022-11-14T22:26:39.950Z,11.90
2022-11-14T22:29:08.050Z,11.60
2022-11-14T22:31:35.864Z,11.50
2022-11-14T22:34:03.807Z,11.60
2022-11-14T22:36:31.587Z,11.70
2022-11-14T22:38:59.340Z,11.60
2022-11-14T22:41:32.634Z,11.60
2022-11-14T22:44:01.364Z,11.50
2022-11-14T22:46:29.667Z,11.40
2022-11-14T22:48:58.100Z,11.50
2022-11-14T22:51:27.555Z,11.30
2022-11-14T22:53:56.817Z,11.50
2022-11-14T22:56:26.214Z,11.60
2022-11-14T22:58:55.787Z,11.50
2022-11-14T23:01:25.648Z,11.50
2022-11-14T23:03:57.474Z,11.60
2022-11-14T23:06:25.754Z,11.40
2022-11-14T23:08:54.583Z,11.20
2022-11-14T23:11:24.379Z,11.40
2022-11-14T23:13:54.323Z,11.10
2022-11-14T23:16:25.222Z,11.30
2022-11-14T23:18:54.733Z,11.30
2022-11-14T23:21:25.028Z,11.50
2022-11-14T23:23:56.389Z,11.40
2022-11-14T23:26:25.458Z,11.50
2022-11-14T23:28:53.671Z,11.80
2022-11-14T23:31:23.374Z,11.60
2022-11-14T23:33:52.923Z,11.50
2022-11-14T23:36:21.110Z,11.80
2022-11-14T23:38:49.076Z,11.40
2022-11-14T23:41:18.837Z,11.80
2022-11-14T23:43:46.988Z,11.70
2022-11-14T23:46:15.292Z,11.60
2022-11-14T23:48:44.639Z,11.70
2022-11-14T23:51:13.571Z,12.00
2022-11-14T23:53:41.438Z,11.90
2022-11-14T23:56:13.542Z,11.90
2022-11-14T23:58:41.671Z,11.90
